sensor_id;sensor_type;location;lat;lon;timestamp;P1;durP1;ratioP1;P2;durP2;ratioP2
23376;SDS011;14353;46.070;13.222;2022-09-09T00:04:29;1.50;;;1.40;;
23376;SDS011;14353;46.070;13.222;2022-09-09T00:06:44;1.67;;;1.20;;
23376;SDS011;14353;46.070;13.222;2022-09-09T00:09:16;1.65;;;1.27;;
23376;SDS011;14353;46.070;13.222;2022-09-09T00:11:46;1.73;;;1.10;;
23376;SDS011;14353;46.070;13.222;2022-09-09T00:20:04;1.60;;;1.30;;
23376;SDS011;14353;46.070;13.222;2022-09-09T00:22:44;1.25;;;1.15;;
23376;SDS011;14353;46.070;13.222;2022-09-09T00:25:48;2.00;;;1.40;;
23376;SDS011;14353;46.070;13.222;2022-09-09T00:31:30;1.42;;;1.20;;
23376;SDS011;14353;46.070;13.222;2022-09-09T00:34:03;2.42;;;1.20;;
23376;SDS011;14353;46.070;13.222;2022-09-09T00:36:38;1.55;;;1.33;;
23376;SDS011;14353;46.070;13.222;2022-09-09T00:39:05;2.35;;;1.30;;
23376;SDS011;14353;46.070;13.222;2022-09-09T00:44:02;2.65;;;1.30;;
23376;SDS011;14353;46.070;13.222;2022-09-09T00:46:56;1.50;;;1.20;;
23376;SDS011;14353;46.070;13.222;2022-09-09T00:49:47;1.45;;;1.30;;
23376;SDS011;14353;46.070;13.222;2022-09-09T00:58:13;2.92;;;1.35;;
23376;SDS011;14353;46.070;13.222;2022-09-09T01:00:41;2.58;;;1.33;;
23376;SDS011;14353;46.070;13.222;2022-09-09T01:03:34;2.60;;;1.13;;
23376;SDS011;14353;46.070;13.222;2022-09-09T01:14:03;2.00;;;1.25;;
23376;SDS011;14353;46.070;13.222;2022-09-09T01:16:44;1.60;;;1.10;;
23376;SDS011;14353;46.070;13.222;2022-09-09T01:19:14;1.45;;;1.00;;
23376;SDS011;14353;46.070;13.222;2022-09-09T01:21:55;1.52;;;1.13;;
23376;SDS011;14353;46.070;13.222;2022-09-09T01:24:27;2.92;;;1.30;;
23376;SDS011;14353;46.070;13.222;2022-09-09T01:27:04;2.15;;;1.13;;
23376;SDS011;14353;46.070;13.222;2022-09-09T01:29:32;2.88;;;1.40;;
23376;SDS011;14353;46.070;13.222;2022-09-09T01:32:03;2.33;;;1.30;;
23376;SDS011;14353;46.070;13.222;2022-09-09T01:35:03;1.75;;;1.30;;
23376;SDS011;14353;46.070;13.222;2022-09-09T01:37:29;1.40;;;1.30;;
23376;SDS011;14353;46.070;13.222;2022-09-09T01:39:55;1.88;;;1.33;;
23376;SDS011;14353;46.070;13.222;2022-09-09T01:42:21;1.70;;;1.38;;
23376;SDS011;14353;46.070;13.222;2022-09-09T01:44:47;1.48;;;1.30;;
23376;SDS011;14353;46.070;13.222;2022-09-09T01:47:14;1.70;;;1.15;;
23376;SDS011;14353;46.070;13.222;2022-09-09T01:49:40;1.63;;;1.13;;
23376;SDS011;14353;46.070;13.222;2022-09-09T01:52:06;1.42;;;1.25;;
23376;SDS011;14353;46.070;13.222;2022-09-09T01:54:33;2.30;;;1.25;;
23376;SDS011;14353;46.070;13.222;2022-09-09T01:57:10;1.77;;;1.40;;
23376;SDS011;14353;46.070;13.222;2022-09-09T02:08:05;1.60;;;1.30;;
23376;SDS011;14353;46.070;13.222;2022-09-09T02:10:37;1.80;;;1.33;;
23376;SDS011;14353;46.070;13.222;2022-09-09T02:13:16;3.13;;;1.10;;
23376;SDS011;14353;46.070;13.222;2022-09-09T02:18:31;1.92;;;1.20;;
23376;SDS011;14353;46.070;13.222;2022-09-09T02:21:03;1.45;;;1.30;;
23376;SDS011;14353;46.070;13.222;2022-09-09T02:23:31;1.45;;;1.25;;
23376;SDS011;14353;46.070;13.222;2022-09-09T02:25:59;1.98;;;1.20;;
23376;SDS011;14353;46.070;13.222;2022-09-09T02:28:29;1.42;;;1.10;;
23376;SDS011;14353;46.070;13.222;2022-09-09T02:30:57;1.77;;;1.20;;
23376;SDS011;14353;46.070;13.222;2022-09-09T02:33:24;1.48;;;1.30;;
23376;SDS011;14353;46.070;13.222;2022-09-09T02:35:53;1.23;;;1.10;;
23376;SDS011;14353;46.070;13.222;2022-09-09T02:38:26;1.77;;;1.20;;
23376;SDS011;14353;46.070;13.222;2022-09-09T02:40:57;2.22;;;1.13;;
23376;SDS011;14353;46.070;13.222;2022-09-09T02:43:23;1.92;;;1.20;;
23376;SDS011;14353;46.070;13.222;2022-09-09T02:45:52;1.33;;;1.10;;
23376;SDS011;14353;46.070;13.222;2022-09-09T02:54:10;1.75;;;1.30;;
23376;SDS011;14353;46.070;13.222;2022-09-09T02:56:43;1.65;;;1.20;;
23376;SDS011;14353;46.070;13.222;2022-09-09T02:59:16;1.17;;;1.00;;
23376;SDS011;14353;46.070;13.222;2022-09-09T03:01:43;1.55;;;1.10;;
23376;SDS011;14353;46.070;13.222;2022-09-09T03:04:09;1.50;;;1.13;;
23376;SDS011;14353;46.070;13.222;2022-09-09T03:06:35;1.75;;;1.20;;
23376;SDS011;14353;46.070;13.222;2022-09-09T03:09:03;1.52;;;1.20;;
23376;SDS011;14353;46.070;13.222;2022-09-09T03:11:29;2.63;;;1.10;;
23376;SDS011;14353;46.070;13.222;2022-09-09T03:13:55;1.20;;;1.10;;
23376;SDS011;14353;46.070;13.222;2022-09-09T03:16:23;1.50;;;1.10;;
23376;SDS011;14353;46.070;13.222;2022-09-09T03:18:49;2.10;;;1.23;;
23376;SDS011;14353;46.070;13.222;2022-09-09T03:21:16;1.27;;;1.15;;
23376;SDS011;14353;46.070;13.222;2022-09-09T03:23:41;1.25;;;1.15;;
23376;SDS011;14353;46.070;13.222;2022-09-09T03:26:07;1.52;;;1.10;;
23376;SDS011;14353;46.070;13.222;2022-09-09T03:28:34;1.80;;;1.00;;
23376;SDS011;14353;46.070;13.222;2022-09-09T03:31:01;1.20;;;1.08;;
23376;SDS011;14353;46.070;13.222;2022-09-09T03:33:28;2.13;;;1.10;;
23376;SDS011;14353;46.070;13.222;2022-09-09T03:35:54;1.10;;;1.00;;
23376;SDS011;14353;46.070;13.222;2022-09-09T03:38:24;1.95;;;1.20;;
23376;SDS011;14353;46.070;13.222;2022-09-09T03:40:51;1.30;;;1.20;;
23376;SDS011;14353;46.070;13.222;2022-09-09T03:43:22;1.55;;;1.17;;
23376;SDS011;14353;46.070;13.222;2022-09-09T03:45:49;1.60;;;1.20;;
23376;SDS011;14353;46.070;13.222;2022-09-09T03:48:16;1.73;;;1.20;;
23376;SDS011;14353;46.070;13.222;2022-09-09T03:50:46;1.08;;;0.90;;
23376;SDS011;14353;46.070;13.222;2022-09-09T03:53:13;1.17;;;1.08;;
23376;SDS011;14353;46.070;13.222;2022-09-09T03:55:47;2.13;;;1.10;;
23376;SDS011;14353;46.070;13.222;2022-09-09T03:58:19;1.58;;;1.05;;
23376;SDS011;14353;46.070;13.222;2022-09-09T04:00:56;1.50;;;1.20;;
23376;SDS011;14353;46.070;13.222;2022-09-09T04:03:24;1.70;;;1.17;;
23376;SDS011;14353;46.070;13.222;2022-09-09T04:05:51;1.60;;;1.20;;
23376;SDS011;14353;46.070;13.222;2022-09-09T04:08:18;1.20;;;1.10;;
23376;SDS011;14353;46.070;13.222;2022-09-09T04:10:45;1.20;;;1.10;;
23376;SDS011;14353;46.070;13.222;2022-09-09T04:13:13;1.25;;;1.00;;
23376;SDS011;14353;46.070;13.222;2022-09-09T04:15:41;2.25;;;1.20;;
23376;SDS011;14353;46.070;13.222;2022-09-09T04:18:07;3.05;;;1.10;;
23376;SDS011;14353;46.070;13.222;2022-09-09T04:20:33;1.13;;;1.00;;
23376;SDS011;14353;46.070;13.222;2022-09-09T04:22:59;1.38;;;1.10;;
23376;SDS011;14353;46.070;13.222;2022-09-09T04:25:25;1.58;;;1.20;;
23376;SDS011;14353;46.070;13.222;2022-09-09T04:27:54;1.63;;;1.10;;
23376;SDS011;14353;46.070;13.222;2022-09-09T04:30:21;1.30;;;1.10;;
23376;SDS011;14353;46.070;13.222;2022-09-09T04:32:48;1.63;;;1.10;;
23376;SDS011;14353;46.070;13.222;2022-09-09T04:35:14;1.63;;;1.02;;
23376;SDS011;14353;46.070;13.222;2022-09-09T04:37:40;1.20;;;0.98;;
23376;SDS011;14353;46.070;13.222;2022-09-09T04:40:06;1.75;;;1.23;;
23376;SDS011;14353;46.070;13.222;2022-09-09T04:42:38;1.10;;;1.00;;
23376;SDS011;14353;46.070;13.222;2022-09-09T04:45:05;1.73;;;1.25;;
23376;SDS011;14353;46.070;13.222;2022-09-09T04:47:32;1.75;;;1.10;;
23376;SDS011;14353;46.070;13.222;2022-09-09T04:49:59;1.52;;;1.17;;
23376;SDS011;14353;46.070;13.222;2022-09-09T04:52:25;1.52;;;1.02;;
23376;SDS011;14353;46.070;13.222;2022-09-09T04:54:51;2.65;;;1.20;;
23376;SDS011;14353;46.070;13.222;2022-09-09T04:57:19;1.90;;;1.20;;
23376;SDS011;14353;46.070;13.222;2022-09-09T04:59:45;1.63;;;1.10;;
23376;SDS011;14353;46.070;13.222;2022-09-09T05:02:11;1.73;;;1.17;;
23376;SDS011;14353;46.070;13.222;2022-09-09T05:04:37;1.60;;;1.10;;
23376;SDS011;14353;46.070;13.222;2022-09-09T05:07:03;2.60;;;1.30;;
23376;SDS011;14353;46.070;13.222;2022-09-09T05:09:29;1.80;;;1.00;;
23376;SDS011;14353;46.070;13.222;2022-09-09T05:11:55;0.90;;;0.90;;
23376;SDS011;14353;46.070;13.222;2022-09-09T05:14:22;1.40;;;1.15;;
23376;SDS011;14353;46.070;13.222;2022-09-09T05:16:48;2.30;;;1.20;;
23376;SDS011;14353;46.070;13.222;2022-09-09T05:19:14;2.67;;;1.13;;
23376;SDS011;14353;46.070;13.222;2022-09-09T05:21:44;1.60;;;1.10;;
23376;SDS011;14353;46.070;13.222;2022-09-09T05:24:10;2.22;;;1.17;;
23376;SDS011;14353;46.070;13.222;2022-09-09T05:26:36;1.35;;;0.93;;
23376;SDS011;14353;46.070;13.222;2022-09-09T05:29:02;1.60;;;1.17;;
23376;SDS011;14353;46.070;13.222;2022-09-09T05:31:29;2.25;;;1.35;;
23376;SDS011;14353;46.070;13.222;2022-09-09T05:33:55;2.05;;;1.30;;
23376;SDS011;14353;46.070;13.222;2022-09-09T05:36:22;2.00;;;1.30;;
23376;SDS011;14353;46.070;13.222;2022-09-09T05:38:48;1.92;;;1.10;;
23376;SDS011;14353;46.070;13.222;2022-09-09T05:41:15;1.58;;;1.20;;
23376;SDS011;14353;46.070;13.222;2022-09-09T05:43:41;1.55;;;1.30;;
23376;SDS011;14353;46.070;13.222;2022-09-09T05:46:16;1.08;;;0.90;;
23376;SDS011;14353;46.070;13.222;2022-09-09T05:48:45;1.55;;;1.00;;
23376;SDS011;14353;46.070;13.222;2022-09-09T05:51:13;1.73;;;1.25;;
23376;SDS011;14353;46.070;13.222;2022-09-09T05:53:43;1.13;;;1.02;;
23376;SDS011;14353;46.070;13.222;2022-09-09T05:56:11;3.35;;;1.23;;
23376;SDS011;14353;46.070;13.222;2022-09-09T05:58:41;1.27;;;1.00;;
23376;SDS011;14353;46.070;13.222;2022-09-09T06:01:18;1.77;;;1.23;;
23376;SDS011;14353;46.070;13.222;2022-09-09T06:03:46;2.35;;;1.30;;
23376;SDS011;14353;46.070;13.222;2022-09-09T06:06:14;1.65;;;1.15;;
23376;SDS011;14353;46.070;13.222;2022-09-09T06:08:48;1.48;;;1.20;;
23376;SDS011;14353;46.070;13.222;2022-09-09T06:11:17;1.75;;;1.30;;
23376;SDS011;14353;46.070;13.222;2022-09-09T06:13:44;2.25;;;1.20;;
23376;SDS011;14353;46.070;13.222;2022-09-09T06:16:16;1.55;;;1.20;;
23376;SDS011;14353;46.070;13.222;2022-09-09T06:18:43;3.10;;;1.30;;
23376;SDS011;14353;46.070;13.222;2022-09-09T06:23:41;1.77;;;1.13;;
23376;SDS011;14353;46.070;13.222;2022-09-09T06:26:10;3.30;;;1.60;;
23376;SDS011;14353;46.070;13.222;2022-09-09T06:28:38;2.25;;;1.30;;
23376;SDS011;14353;46.070;13.222;2022-09-09T06:31:06;2.47;;;1.42;;
23376;SDS011;14353;46.070;13.222;2022-09-09T06:33:37;2.08;;;1.23;;
23376;SDS011;14353;46.070;13.222;2022-09-09T06:36:07;2.30;;;1.35;;
23376;SDS011;14353;46.070;13.222;2022-09-09T06:38:37;2.38;;;1.42;;
23376;SDS011;14353;46.070;13.222;2022-09-09T06:41:03;4.15;;;1.55;;
23376;SDS011;14353;46.070;13.222;2022-09-09T06:43:34;1.65;;;1.35;;
23376;SDS011;14353;46.070;13.222;2022-09-09T06:46:02;2.55;;;1.60;;
23376;SDS011;14353;46.070;13.222;2022-09-09T06:48:35;4.07;;;1.55;;
23376;SDS011;14353;46.070;13.222;2022-09-09T06:53:43;1.65;;;1.33;;
23376;SDS011;14353;46.070;13.222;2022-09-09T06:58:53;3.53;;;1.58;;
23376;SDS011;14353;46.070;13.222;2022-09-09T07:01:21;3.08;;;1.50;;
23376;SDS011;14353;46.070;13.222;2022-09-09T07:03:49;2.40;;;1.50;;
23376;SDS011;14353;46.070;13.222;2022-09-09T07:06:24;2.75;;;1.50;;
23376;SDS011;14353;46.070;13.222;2022-09-09T07:09:04;1.67;;;1.38;;
23376;SDS011;14353;46.070;13.222;2022-09-09T07:11:38;1.98;;;1.38;;
23376;SDS011;14353;46.070;13.222;2022-09-09T07:14:06;1.73;;;1.40;;
23376;SDS011;14353;46.070;13.222;2022-09-09T07:16:33;3.92;;;1.58;;
23376;SDS011;14353;46.070;13.222;2022-09-09T07:19:02;2.20;;;1.20;;
23376;SDS011;14353;46.070;13.222;2022-09-09T07:21:29;3.67;;;1.67;;
23376;SDS011;14353;46.070;13.222;2022-09-09T07:23:57;2.35;;;1.55;;
23376;SDS011;14353;46.070;13.222;2022-09-09T07:26:25;1.42;;;1.30;;
23376;SDS011;14353;46.070;13.222;2022-09-09T07:28:54;2.35;;;1.50;;
23376;SDS011;14353;46.070;13.222;2022-09-09T07:31:29;2.83;;;1.63;;
23376;SDS011;14353;46.070;13.222;2022-09-09T07:33:59;3.83;;;1.90;;
23376;SDS011;14353;46.070;13.222;2022-09-09T07:36:27;3.17;;;1.52;;
23376;SDS011;14353;46.070;13.222;2022-09-09T07:39:00;2.05;;;1.58;;
23376;SDS011;14353;46.070;13.222;2022-09-09T07:41:34;2.65;;;1.73;;
23376;SDS011;14353;46.070;13.222;2022-09-09T07:44:09;2.63;;;1.50;;
23376;SDS011;14353;46.070;13.222;2022-09-09T07:46:38;3.47;;;1.63;;
23376;SDS011;14353;46.070;13.222;2022-09-09T07:49:05;3.08;;;1.60;;
23376;SDS011;14353;46.070;13.222;2022-09-09T07:51:34;2.83;;;1.70;;
23376;SDS011;14353;46.070;13.222;2022-09-09T07:54:04;3.90;;;1.70;;
23376;SDS011;14353;46.070;13.222;2022-09-09T07:56:32;4.15;;;1.80;;
23376;SDS011;14353;46.070;13.222;2022-09-09T07:59:02;2.67;;;1.60;;
23376;SDS011;14353;46.070;13.222;2022-09-09T08:01:39;4.05;;;1.70;;
23376;SDS011;14353;46.070;13.222;2022-09-09T08:04:13;3.00;;;1.45;;
23376;SDS011;14353;46.070;13.222;2022-09-09T08:06:43;6.78;;;1.80;;
23376;SDS011;14353;46.070;13.222;2022-09-09T08:09:20;3.15;;;1.60;;
23376;SDS011;14353;46.070;13.222;2022-09-09T08:11:50;4.43;;;1.80;;
23376;SDS011;14353;46.070;13.222;2022-09-09T08:14:21;3.05;;;1.70;;
23376;SDS011;14353;46.070;13.222;2022-09-09T08:16:49;3.92;;;1.90;;
23376;SDS011;14353;46.070;13.222;2022-09-09T08:19:18;5.38;;;2.00;;
23376;SDS011;14353;46.070;13.222;2022-09-09T08:21:45;4.57;;;1.83;;
23376;SDS011;14353;46.070;13.222;2022-09-09T08:24:14;2.72;;;1.90;;
23376;SDS011;14353;46.070;13.222;2022-09-09T08:26:42;4.50;;;1.70;;
23376;SDS011;14353;46.070;13.222;2022-09-09T08:29:11;4.30;;;1.88;;
23376;SDS011;14353;46.070;13.222;2022-09-09T08:31:43;4.88;;;1.88;;
23376;SDS011;14353;46.070;13.222;2022-09-09T08:34:12;6.38;;;1.70;;
23376;SDS011;14353;46.070;13.222;2022-09-09T08:36:40;4.10;;;1.77;;
23376;SDS011;14353;46.070;13.222;2022-09-09T08:39:09;3.65;;;1.98;;
23376;SDS011;14353;46.070;13.222;2022-09-09T08:47:27;3.15;;;1.70;;
23376;SDS011;14353;46.070;13.222;2022-09-09T09:01:00;4.07;;;1.80;;
23376;SDS011;14353;46.070;13.222;2022-09-09T09:09:23;4.07;;;1.70;;
23376;SDS011;14353;46.070;13.222;2022-09-09T09:11:59;2.50;;;1.90;;
23376;SDS011;14353;46.070;13.222;2022-09-09T09:14:30;2.72;;;1.80;;
23376;SDS011;14353;46.070;13.222;2022-09-09T09:17:07;4.90;;;1.90;;
23376;SDS011;14353;46.070;13.222;2022-09-09T09:19:38;2.88;;;1.85;;
23376;SDS011;14353;46.070;13.222;2022-09-09T09:24:42;4.25;;;2.10;;
23376;SDS011;14353;46.070;13.222;2022-09-09T09:27:33;3.05;;;1.98;;
23376;SDS011;14353;46.070;13.222;2022-09-09T09:30:10;2.88;;;1.90;;
23376;SDS011;14353;46.070;13.222;2022-09-09T09:32:44;3.25;;;1.70;;
23376;SDS011;14353;46.070;13.222;2022-09-09T09:35:19;2.67;;;1.90;;
23376;SDS011;14353;46.070;13.222;2022-09-09T09:37:45;3.40;;;1.90;;
23376;SDS011;14353;46.070;13.222;2022-09-09T09:40:17;2.50;;;1.73;;
23376;SDS011;14353;46.070;13.222;2022-09-09T09:42:52;4.60;;;1.90;;
23376;SDS011;14353;46.070;13.222;2022-09-09T09:45:26;2.88;;;1.95;;
23376;SDS011;14353;46.070;13.222;2022-09-09T09:47:58;2.40;;;1.70;;
23376;SDS011;14353;46.070;13.222;2022-09-09T09:50:29;2.33;;;1.75;;
23376;SDS011;14353;46.070;13.222;2022-09-09T09:52:57;3.00;;;1.95;;
23376;SDS011;14353;46.070;13.222;2022-09-09T09:55:25;2.25;;;1.52;;
23376;SDS011;14353;46.070;13.222;2022-09-09T09:58:00;5.35;;;1.50;;
23376;SDS011;14353;46.070;13.222;2022-09-09T10:00:30;3.70;;;1.70;;
23376;SDS011;14353;46.070;13.222;2022-09-09T10:02:58;2.15;;;1.80;;
23376;SDS011;14353;46.070;13.222;2022-09-09T10:05:27;3.42;;;1.80;;
23376;SDS011;14353;46.070;13.222;2022-09-09T10:08:13;2.70;;;1.80;;
23376;SDS011;14353;46.070;13.222;2022-09-09T10:10:59;3.92;;;1.98;;
23376;SDS011;14353;46.070;13.222;2022-09-09T10:26:38;3.22;;;1.70;;
23376;SDS011;14353;46.070;13.222;2022-09-09T10:38:05;2.17;;;1.63;;
23376;SDS011;14353;46.070;13.222;2022-09-09T10:40:46;2.13;;;1.55;;
23376;SDS011;14353;46.070;13.222;2022-09-09T10:56:44;2.08;;;1.55;;
23376;SDS011;14353;46.070;13.222;2022-09-09T10:59:20;2.08;;;1.65;;
23376;SDS011;14353;46.070;13.222;2022-09-09T11:01:58;1.98;;;1.60;;
23376;SDS011;14353;46.070;13.222;2022-09-09T11:04:27;1.55;;;1.40;;
23376;SDS011;14353;46.070;13.222;2022-09-09T11:06:59;2.17;;;1.75;;
23376;SDS011;14353;46.070;13.222;2022-09-09T11:09:31;3.53;;;1.52;;
23376;SDS011;14353;46.070;13.222;2022-09-09T11:12:02;2.53;;;1.48;;
23376;SDS011;14353;46.070;13.222;2022-09-09T11:17:22;3.30;;;1.58;;
23376;SDS011;14353;46.070;13.222;2022-09-09T11:19:58;2.17;;;1.40;;
23376;SDS011;14353;46.070;13.222;2022-09-09T11:22:39;3.88;;;1.42;;
23376;SDS011;14353;46.070;13.222;2022-09-09T11:44:39;2.17;;;1.50;;
23376;SDS011;14353;46.070;13.222;2022-09-09T11:47:23;1.77;;;1.27;;
23376;SDS011;14353;46.070;13.222;2022-09-09T11:50:06;2.00;;;1.40;;
23376;SDS011;14353;46.070;13.222;2022-09-09T11:52:36;1.45;;;1.20;;
23376;SDS011;14353;46.070;13.222;2022-09-09T11:55:37;2.15;;;1.40;;
23376;SDS011;14353;46.070;13.222;2022-09-09T12:00:38;2.08;;;1.30;;
23376;SDS011;14353;46.070;13.222;2022-09-09T12:05:58;1.58;;;1.30;;
23376;SDS011;14353;46.070;13.222;2022-09-09T12:08:34;1.77;;;1.30;;
23376;SDS011;14353;46.070;13.222;2022-09-09T12:11:02;2.00;;;1.60;;
23376;SDS011;14353;46.070;13.222;2022-09-09T12:13:29;1.38;;;1.23;;
23376;SDS011;14353;46.070;13.222;2022-09-09T12:15:57;1.25;;;1.10;;
23376;SDS011;14353;46.070;13.222;2022-09-09T12:23:53;1.77;;;1.20;;
23376;SDS011;14353;46.070;13.222;2022-09-09T12:29:37;2.00;;;1.33;;
23376;SDS011;14353;46.070;13.222;2022-09-09T12:32:13;1.55;;;1.13;;
23376;SDS011;14353;46.070;13.222;2022-09-09T12:34:47;1.80;;;1.20;;
23376;SDS011;14353;46.070;13.222;2022-09-09T12:42:45;2.70;;;1.20;;
23376;SDS011;14353;46.070;13.222;2022-09-09T12:45:16;1.55;;;1.05;;
23376;SDS011;14353;46.070;13.222;2022-09-09T12:47:48;2.53;;;1.30;;
23376;SDS011;14353;46.070;13.222;2022-09-09T12:50:47;1.90;;;1.25;;
23376;SDS011;14353;46.070;13.222;2022-09-09T12:53:21;2.30;;;1.25;;
23376;SDS011;14353;46.070;13.222;2022-09-09T12:55:53;2.13;;;1.25;;
23376;SDS011;14353;46.070;13.222;2022-09-09T12:58:46;1.30;;;1.20;;
23376;SDS011;14353;46.070;13.222;2022-09-09T13:01:24;2.60;;;1.17;;
23376;SDS011;14353;46.070;13.222;2022-09-09T13:03:54;3.10;;;1.40;;
23376;SDS011;14353;46.070;13.222;2022-09-09T13:06:27;1.50;;;1.20;;
23376;SDS011;14353;46.070;13.222;2022-09-09T13:11:29;1.42;;;1.20;;
23376;SDS011;14353;46.070;13.222;2022-09-09T13:14:01;1.30;;;1.20;;
23376;SDS011;14353;46.070;13.222;2022-09-09T13:16:28;1.55;;;1.33;;
23376;SDS011;14353;46.070;13.222;2022-09-09T13:18:57;1.73;;;1.00;;
23376;SDS011;14353;46.070;13.222;2022-09-09T13:21:35;1.10;;;1.00;;
23376;SDS011;14353;46.070;13.222;2022-09-09T13:24:03;2.67;;;1.30;;
23376;SDS011;14353;46.070;13.222;2022-09-09T13:26:56;1.35;;;1.00;;
23376;SDS011;14353;46.070;13.222;2022-09-09T13:29:23;1.35;;;1.08;;
23376;SDS011;14353;46.070;13.222;2022-09-09T13:31:50;1.30;;;1.20;;
23376;SDS011;14353;46.070;13.222;2022-09-09T13:34:31;3.22;;;1.10;;
23376;SDS011;14353;46.070;13.222;2022-09-09T13:37:01;1.20;;;1.10;;
23376;SDS011;14353;46.070;13.222;2022-09-09T13:39:36;1.77;;;1.10;;
23376;SDS011;14353;46.070;13.222;2022-09-09T13:42:03;2.75;;;1.30;;
23376;SDS011;14353;46.070;13.222;2022-09-09T13:44:34;2.97;;;1.10;;
23376;SDS011;14353;46.070;13.222;2022-09-09T13:47:19;2.42;;;1.20;;
23376;SDS011;14353;46.070;13.222;2022-09-09T13:49:48;1.35;;;1.00;;
23376;SDS011;14353;46.070;13.222;2022-09-09T13:52:15;1.90;;;1.10;;
23376;SDS011;14353;46.070;13.222;2022-09-09T13:54:52;1.13;;;1.00;;
23376;SDS011;14353;46.070;13.222;2022-09-09T13:57:20;2.08;;;1.33;;
23376;SDS011;14353;46.070;13.222;2022-09-09T13:59:50;1.33;;;1.00;;
23376;SDS011;14353;46.070;13.222;2022-09-09T14:02:18;1.45;;;1.10;;
23376;SDS011;14353;46.070;13.222;2022-09-09T14:04:44;2.22;;;1.10;;
23376;SDS011;14353;46.070;13.222;2022-09-09T14:07:13;1.05;;;0.85;;
23376;SDS011;14353;46.070;13.222;2022-09-09T14:09:42;2.13;;;1.40;;
23376;SDS011;14353;46.070;13.222;2022-09-09T14:12:10;2.00;;;0.93;;
23376;SDS011;14353;46.070;13.222;2022-09-09T14:14:37;1.75;;;1.00;;
23376;SDS011;14353;46.070;13.222;2022-09-09T14:17:04;1.88;;;1.20;;
23376;SDS011;14353;46.070;13.222;2022-09-09T14:19:30;1.83;;;1.30;;
23376;SDS011;14353;46.070;13.222;2022-09-09T14:21:57;1.65;;;1.00;;
23376;SDS011;14353;46.070;13.222;2022-09-09T14:24:23;2.47;;;1.20;;
23376;SDS011;14353;46.070;13.222;2022-09-09T14:26:50;1.45;;;1.17;;
23376;SDS011;14353;46.070;13.222;2022-09-09T14:29:16;3.90;;;1.20;;
23376;SDS011;14353;46.070;13.222;2022-09-09T14:31:43;1.13;;;0.90;;
23376;SDS011;14353;46.070;13.222;2022-09-09T14:34:12;2.33;;;1.10;;
23376;SDS011;14353;46.070;13.222;2022-09-09T14:36:39;1.30;;;0.98;;
23376;SDS011;14353;46.070;13.222;2022-09-09T14:39:06;1.42;;;1.02;;
23376;SDS011;14353;46.070;13.222;2022-09-09T14:41:33;2.00;;;1.10;;
23376;SDS011;14353;46.070;13.222;2022-09-09T14:43:59;2.33;;;1.20;;
23376;SDS011;14353;46.070;13.222;2022-09-09T14:46:25;2.22;;;1.10;;
23376;SDS011;14353;46.070;13.222;2022-09-09T14:48:51;2.47;;;1.05;;
23376;SDS011;14353;46.070;13.222;2022-09-09T14:51:21;3.08;;;1.17;;
23376;SDS011;14353;46.070;13.222;2022-09-09T14:53:54;0.95;;;0.82;;
23376;SDS011;14353;46.070;13.222;2022-09-09T14:56:22;1.30;;;1.10;;
23376;SDS011;14353;46.070;13.222;2022-09-09T14:58:52;2.80;;;1.30;;
23376;SDS011;14353;46.070;13.222;2022-09-09T15:01:22;2.63;;;1.20;;
23376;SDS011;14353;46.070;13.222;2022-09-09T15:03:56;2.03;;;1.10;;
23376;SDS011;14353;46.070;13.222;2022-09-09T15:06:25;1.30;;;1.00;;
23376;SDS011;14353;46.070;13.222;2022-09-09T15:08:53;1.70;;;1.20;;
23376;SDS011;14353;46.070;13.222;2022-09-09T15:11:19;1.58;;;0.90;;
23376;SDS011;14353;46.070;13.222;2022-09-09T15:13:46;1.92;;;1.20;;
23376;SDS011;14353;46.070;13.222;2022-09-09T15:16:16;2.20;;;1.02;;
23376;SDS011;14353;46.070;13.222;2022-09-09T15:18:43;1.58;;;1.05;;
23376;SDS011;14353;46.070;13.222;2022-09-09T15:21:14;1.55;;;1.02;;
23376;SDS011;14353;46.070;13.222;2022-09-09T15:23:42;2.60;;;1.20;;
23376;SDS011;14353;46.070;13.222;2022-09-09T15:26:10;1.70;;;1.00;;
23376;SDS011;14353;46.070;13.222;2022-09-09T15:28:39;1.52;;;1.05;;
23376;SDS011;14353;46.070;13.222;2022-09-09T15:33:55;1.75;;;1.10;;
23376;SDS011;14353;46.070;13.222;2022-09-09T15:36:26;1.85;;;1.00;;
23376;SDS011;14353;46.070;13.222;2022-09-09T15:38:53;1.77;;;1.00;;
23376;SDS011;14353;46.070;13.222;2022-09-09T15:41:20;2.25;;;1.00;;
23376;SDS011;14353;46.070;13.222;2022-09-09T15:43:47;2.40;;;1.05;;
23376;SDS011;14353;46.070;13.222;2022-09-09T15:46:25;1.52;;;0.93;;
23376;SDS011;14353;46.070;13.222;2022-09-09T15:51:39;1.60;;;1.00;;
23376;SDS011;14353;46.070;13.222;2022-09-09T15:54:07;1.80;;;1.00;;
23376;SDS011;14353;46.070;13.222;2022-09-09T15:56:35;1.00;;;0.90;;
23376;SDS011;14353;46.070;13.222;2022-09-09T15:59:02;2.83;;;1.00;;
23376;SDS011;14353;46.070;13.222;2022-09-09T16:01:29;2.40;;;0.93;;
23376;SDS011;14353;46.070;13.222;2022-09-09T16:03:56;1.60;;;1.00;;
23376;SDS011;14353;46.070;13.222;2022-09-09T16:06:23;1.75;;;0.80;;
23376;SDS011;14353;46.070;13.222;2022-09-09T16:08:51;2.15;;;0.90;;
23376;SDS011;14353;46.070;13.222;2022-09-09T16:13:49;1.65;;;1.10;;
23376;SDS011;14353;46.070;13.222;2022-09-09T16:16:17;2.33;;;0.95;;
23376;SDS011;14353;46.070;13.222;2022-09-09T16:18:51;1.73;;;1.08;;
23376;SDS011;14353;46.070;13.222;2022-09-09T16:21:26;2.05;;;1.17;;
23376;SDS011;14353;46.070;13.222;2022-09-09T16:23:57;2.03;;;0.90;;
23376;SDS011;14353;46.070;13.222;2022-09-09T16:26:25;3.03;;;0.93;;
23376;SDS011;14353;46.070;13.222;2022-09-09T16:28:52;2.05;;;1.10;;
23376;SDS011;14353;46.070;13.222;2022-09-09T16:31:20;2.40;;;0.93;;
23376;SDS011;14353;46.070;13.222;2022-09-09T16:33:48;1.40;;;0.80;;
23376;SDS011;14353;46.070;13.222;2022-09-09T16:36:16;2.38;;;0.90;;
23376;SDS011;14353;46.070;13.222;2022-09-09T16:38:45;1.80;;;1.00;;
23376;SDS011;14353;46.070;13.222;2022-09-09T16:41:11;1.15;;;0.82;;
23376;SDS011;14353;46.070;13.222;2022-09-09T16:43:41;1.77;;;0.88;;
23376;SDS011;14353;46.070;13.222;2022-09-09T16:46:15;1.23;;;0.77;;
23376;SDS011;14353;46.070;13.222;2022-09-09T16:48:43;2.97;;;1.00;;
23376;SDS011;14353;46.070;13.222;2022-09-09T16:51:12;1.85;;;0.80;;
23376;SDS011;14353;46.070;13.222;2022-09-09T16:53:42;1.15;;;0.70;;
23376;SDS011;14353;46.070;13.222;2022-09-09T16:56:12;1.98;;;0.90;;
23376;SDS011;14353;46.070;13.222;2022-09-09T16:58:40;3.55;;;0.90;;
23376;SDS011;14353;46.070;13.222;2022-09-09T17:01:08;2.08;;;1.15;;
23376;SDS011;14353;46.070;13.222;2022-09-09T17:03:39;2.08;;;1.10;;
23376;SDS011;14353;46.070;13.222;2022-09-09T17:06:09;1.27;;;0.80;;
23376;SDS011;14353;46.070;13.222;2022-09-09T17:08:36;1.55;;;0.90;;
23376;SDS011;14353;46.070;13.222;2022-09-09T17:11:04;2.08;;;1.00;;
23376;SDS011;14353;46.070;13.222;2022-09-09T17:13:43;1.30;;;0.85;;
23376;SDS011;14353;46.070;13.222;2022-09-09T17:16:11;2.75;;;0.95;;
23376;SDS011;14353;46.070;13.222;2022-09-09T17:18:39;3.55;;;1.10;;
23376;SDS011;14353;46.070;13.222;2022-09-09T17:21:06;2.83;;;0.95;;
23376;SDS011;14353;46.070;13.222;2022-09-09T17:23:37;2.20;;;1.08;;
23376;SDS011;14353;46.070;13.222;2022-09-09T17:26:06;2.45;;;0.90;;
23376;SDS011;14353;46.070;13.222;2022-09-09T17:28:35;2.13;;;0.90;;
23376;SDS011;14353;46.070;13.222;2022-09-09T17:31:04;1.65;;;0.85;;
23376;SDS011;14353;46.070;13.222;2022-09-09T17:33:36;1.48;;;0.90;;
23376;SDS011;14353;46.070;13.222;2022-09-09T17:36:26;1.88;;;0.90;;
23376;SDS011;14353;46.070;13.222;2022-09-09T17:38:51;1.13;;;0.82;;